createdAt,value
2018-04-01T00:01:25.798Z,95639.25
2018-04-01T00:04:48.144Z,95645.36
2018-04-01T00:08:10.406Z,95650.64
2018-04-01T00:11:32.681Z,95646.23
2018-04-01T00:14:54.958Z,95647.61
2018-04-01T00:18:18.002Z,95660.55
2018-04-01T00:21:40.279Z,95660.17
2018-04-01T00:25:02.617Z,95661.45
2018-04-01T00:28:24.947Z,95662.30
2018-04-01T00:31:47.227Z,95666.71
2018-04-01T00:35:09.477Z,95668.95
2018-04-01T00:38:31.770Z,95671.66
2018-04-01T00:41:54.824Z,95676.39
2018-04-01T00:45:17.151Z,95680.98
2018-04-01T00:48:39.419Z,95687.09
2018-04-01T00:52:01.749Z,95686.39
2018-04-01T00:55:24.024Z,95691.26
2018-04-01T00:58:46.282Z,95694.08
2018-04-01T01:02:08.579Z,95698.63
2018-04-01T01:05:31.633Z,95696.40
2018-04-01T01:08:53.900Z,95697.80
2018-04-01T01:12:16.235Z,95705.03
2018-04-01T01:15:38.580Z,95712.30
2018-04-01T01:19:00.912Z,95713.44
2018-04-01T01:22:23.256Z,95714.03
2018-04-01T01:25:45.563Z,95702.47
2018-04-01T01:29:07.847Z,95716.73
2018-04-01T01:32:30.117Z,95717.23
2018-04-01T01:35:52.512Z,95717.05
2018-04-01T01:39:14.807Z,95721.55
2018-04-01T01:42:37.135Z,95727.19
2018-04-01T01:45:59.414Z,95728.52
2018-04-01T01:49:22.468Z,95727.80
2018-04-01T01:52:44.811Z,95726.88
2018-04-01T01:56:07.162Z,95730.78
2018-04-01T01:59:30.192Z,95734.94
2018-04-01T02:02:52.550Z,95734.10
2018-04-01T02:06:14.855Z,95742.95
2018-04-01T02:09:37.157Z,95743.94
2018-04-01T02:12:59.477Z,95750.16
2018-04-01T02:16:21.750Z,95752.98
2018-04-01T02:19:44.029Z,95762.89
2018-04-01T02:23:06.304Z,95765.77
2018-04-01T02:26:28.648Z,95770.09
2018-04-01T02:29:51.699Z,95769.91
2018-04-01T02:33:13.965Z,95770.42
2018-04-01T02:36:36.223Z,95778.47
2018-04-01T02:39:58.497Z,95779.67
2018-04-01T02:43:20.752Z,95778.39
2018-04-01T02:46:43.031Z,95786.00
2018-04-01T02:50:05.289Z,95793.66
2018-04-01T02:53:27.662Z,95807.91
2018-04-01T02:56:50.797Z,95810.89
2018-04-01T03:00:13.837Z,95822.32
2018-04-01T03:03:36.106Z,95819.88
2018-04-01T03:06:58.426Z,95817.66
2018-04-01T03:10:20.720Z,95823.80
2018-04-01T03:13:43.065Z,95829.00
2018-04-01T03:17:05.520Z,95834.90
2018-04-01T03:20:27.813Z,95831.55
2018-04-01T03:23:50.146Z,95832.58
2018-04-01T03:27:12.415Z,95847.37
2018-04-01T03:30:34.677Z,95841.00
2018-04-01T03:33:57.023Z,95859.80
2018-04-01T03:37:19.305Z,95850.30
2018-04-01T03:40:42.337Z,95853.44
2018-04-01T03:44:04.631Z,95853.54
2018-04-01T03:47:26.952Z,95863.82
2018-04-01T03:50:49.213Z,95865.00
2018-04-01T03:54:11.482Z,95874.08
2018-04-01T03:57:33.744Z,95879.62
2018-04-01T04:00:56.018Z,95898.55
2018-04-01T04:04:18.287Z,95886.55
2018-04-01T04:07:40.550Z,95885.85
2018-04-01T04:11:02.804Z,95889.41
2018-04-01T04:14:25.099Z,95899.55
2018-04-01T04:17:48.138Z,95907.85
2018-04-01T04:21:10.454Z,95916.49
2018-04-01T04:24:32.763Z,95904.23
2018-04-01T04:27:55.021Z,95912.83
2018-04-01T04:31:17.286Z,95911.88
2018-04-01T04:34:39.572Z,95909.29
2018-04-01T04:38:02.611Z,95913.70
2018-04-01T04:41:24.910Z,95924.56
2018-04-01T04:44:48.009Z,95936.53
2018-04-01T04:48:10.331Z,95942.62
2018-04-01T04:51:33.366Z,95936.19
2018-04-01T04:54:55.694Z,95942.73
2018-04-01T04:58:17.968Z,95936.44
2018-04-01T05:01:40.317Z,95941.36
2018-04-01T05:05:03.370Z,95945.86
2018-04-01T05:08:25.800Z,95955.59
2018-04-01T05:11:48.059Z,95962.30
2018-04-01T05:15:10.386Z,95974.77
2018-04-01T05:18:32.648Z,95971.67
2018-04-01T05:21:54.918Z,95968.70
2018-04-01T05:25:17.202Z,95984.45
2018-04-01T05:28:40.246Z,95983.06
2018-04-01T05:32:02.516Z,95979.92
2018-04-01T05:35:24.802Z,96004.86
2018-04-01T05:38:47.849Z,95986.05
2018-04-01T05:42:10.126Z,95998.13
2018-04-01T05:45:32.476Z,96008.38
2018-04-01T05:48:55.521Z,96012.58
2018-04-01T05:52:17.793Z,96028.91
2018-04-01T05:55:40.119Z,96019.41
2018-04-01T05:59:02.532Z,96017.19
2018-04-01T06:02:24.790Z,96024.47
2018-04-01T06:05:47.079Z,96029.16
2018-04-01T06:09:09.358Z,96040.02
2018-04-01T06:12:32.417Z,96046.06
2018-04-01T06:15:54.736Z,96047.80
2018-04-01T06:19:17.012Z,96054.38
2018-04-01T06:22:39.299Z,96064.88
2018-04-01T06:26:02.341Z,96071.51
2018-04-01T06:29:24.815Z,96073.54
2018-04-01T06:32:47.115Z,96073.61
2018-04-01T06:36:10.150Z,96075.20
2018-04-01T06:39:32.509Z,96082.20
2018-04-01T06:42:54.856Z,96103.69
2018-04-01T06:46:17.925Z,96089.34
2018-04-01T06:49:40.993Z,96105.83
2018-04-01T06:53:03.300Z,96097.23
2018-04-01T06:56:25.605Z,96113.95
2018-04-01T06:59:47.913Z,96115.94
2018-04-01T07:03:10.170Z,96107.30
2018-04-01T07:06:32.445Z,96110.88
2018-04-01T07:09:54.843Z,96108.16
2018-04-01T07:13:17.444Z,96102.98
2018-04-01T07:16:40.597Z,96108.52
2018-04-01T07:20:02.919Z,96114.83
2018-04-01T07:23:25.981Z,96125.37
2018-04-01T07:26:49.029Z,96126.28
2018-04-01T07:30:11.486Z,96126.38
2018-04-01T07:33:33.782Z,96135.71
2018-04-01T07:36:56.058Z,96138.84
2018-04-01T07:40:19.266Z,96148.14
2018-04-01T07:43:41.774Z,96147.19
2018-04-01T07:47:04.102Z,96155.36
2018-04-01T07:50:27.153Z,96163.08
2018-04-01T07:53:49.509Z,96168.44
2018-04-01T07:57:12.696Z,96151.81
2018-04-01T08:00:35.165Z,96166.95
2018-04-01T08:03:57.545Z,96176.94
2018-04-01T08:07:20.785Z,96166.72
2018-04-01T08:10:43.111Z,96169.31
2018-04-01T08:14:05.464Z,96176.97
2018-04-01T08:17:27.740Z,96178.52
2018-04-01T08:20:50.020Z,96170.19
2018-04-01T08:24:12.340Z,96175.23
2018-04-01T08:27:34.620Z,96177.35
2018-04-01T08:30:56.874Z,96184.70
2018-04-01T08:34:19.201Z,96178.80
2018-04-01T08:37:41.504Z,96178.98
2018-04-01T08:41:03.836Z,96190.61
2018-04-01T08:44:26.177Z,96196.81
2018-04-01T08:47:48.439Z,96202.09
2018-04-01T08:51:10.789Z,96206.77
2018-04-01T08:54:33.120Z,96207.05
2018-04-01T08:57:55.378Z,96213.81
2018-04-01T09:01:17.846Z,96216.39
2018-04-01T09:04:40.153Z,96221.67
2018-04-01T09:08:03.191Z,96218.41
2018-04-01T10:34:18.877Z,96295.14
2018-04-01T10:37:41.794Z,96307.66
2018-04-01T10:41:04.624Z,96300.15
2018-04-01T10:44:27.480Z,96320.04
2018-04-01T10:47:50.341Z,96316.62
2018-04-01T10:51:13.173Z,96324.98
2018-04-01T10:54:35.546Z,96317.39
2018-04-01T10:57:59.616Z,96313.08
2018-04-01T11:01:21.911Z,96304.41
2018-04-01T11:04:44.212Z,96318.44
2018-04-01T11:08:06.492Z,96307.98
2018-04-01T11:11:28.810Z,96317.08
2018-04-01T11:14:51.852Z,96318.69
2018-04-01T11:18:14.892Z,96333.47
2018-04-01T11:21:37.222Z,96311.28
2018-04-01T11:24:59.566Z,96319.69
2018-04-01T11:28:21.935Z,96317.84
2018-04-01T11:31:44.991Z,96318.78
2018-04-01T11:35:08.039Z,96318.94
2018-04-01T11:38:30.305Z,96313.86
2018-04-01T11:41:52.567Z,96330.13
2018-04-01T11:45:14.853Z,96344.22
2018-04-01T11:48:37.892Z,96356.48
2018-04-01T11:52:00.247Z,96357.60
2018-04-01T11:55:22.721Z,96366.52
2018-04-01T11:58:45.022Z,96351.30
2018-04-01T12:02:07.379Z,96344.98
2018-04-01T12:05:29.685Z,96343.97
2018-04-01T12:08:52.785Z,96353.17
2018-04-01T12:12:15.076Z,96364.67
2018-04-01T12:15:37.472Z,96379.22
2018-04-01T12:18:59.819Z,96361.56
2018-04-01T12:22:22.264Z,96359.39
2018-04-01T12:25:45.431Z,96362.59
2018-04-01T12:29:07.696Z,96352.38
2018-04-01T12:32:29.985Z,96352.98
2018-04-01T12:35:52.311Z,96343.43
2018-04-01T12:39:14.614Z,96376.31
2018-04-01T12:42:37.663Z,96364.39
2018-04-01T12:46:00.122Z,96360.38
2018-04-01T12:49:22.421Z,96372.16
2018-04-01T12:52:45.485Z,96361.66
2018-04-01T12:56:07.825Z,96362.34
2018-04-01T12:59:30.914Z,96367.02
2018-04-01T13:02:53.244Z,96360.01
2018-04-01T13:06:16.278Z,96368.48
2018-04-01T13:09:38.576Z,96371.73
2018-04-01T13:13:01.644Z,96367.82
2018-04-01T13:16:24.719Z,96362.48
2018-04-01T13:19:47.021Z,96377.22
2018-04-01T13:23:09.365Z,96397.72
2018-04-01T13:26:32.434Z,96380.05
2018-04-01T13:29:55.583Z,96386.27
2018-04-01T13:33:18.629Z,96387.52
2018-04-01T13:36:40.891Z,96374.21
2018-04-01T13:40:03.223Z,96364.49
2018-04-01T13:43:25.540Z,96359.42
2018-04-01T13:46:47.968Z,96372.56
2018-04-01T13:50:10.263Z,96369.61
2018-04-01T13:53:33.323Z,96366.91
2018-04-01T13:56:55.645Z,96373.15
2018-04-01T14:00:17.938Z,96371.58
2018-04-01T14:03:40.985Z,96369.13
2018-04-01T14:07:03.269Z,96372.39
2018-04-01T14:10:26.323Z,96384.41
2018-04-01T14:13:48.627Z,96404.94
2018-04-01T14:17:11.051Z,96398.13
2018-04-01T14:20:33.356Z,96394.80
2018-04-01T14:23:56.452Z,96384.77
2018-04-01T14:27:18.765Z,96391.00
2018-04-01T14:30:41.810Z,96396.89
2018-04-01T14:34:04.151Z,96395.22
2018-04-01T14:37:26.510Z,96411.13
2018-04-01T14:40:49.568Z,96395.22
2018-04-01T14:44:12.647Z,96391.45
2018-04-01T14:47:35.702Z,96392.92
2018-04-01T14:50:58.771Z,96409.44
2018-04-01T14:54:21.835Z,96407.90
2018-04-01T14:57:44.894Z,96403.55
2018-04-01T15:01:07.971Z,96413.17
2018-04-01T15:04:31.054Z,96414.33
2018-04-01T15:07:53.349Z,96389.80
2018-04-01T15:11:15.654Z,96404.73
2018-04-01T15:14:37.998Z,96405.52
2018-04-01T15:18:00.318Z,96403.10
2018-04-01T15:21:23.383Z,96432.88
2018-04-01T15:24:46.437Z,96424.23
2018-04-01T15:28:08.704Z,96410.34
2018-04-01T15:31:31.099Z,96409.88
2018-04-01T15:34:53.391Z,96409.25
2018-04-01T15:38:15.840Z,96428.91
2018-04-01T15:41:38.124Z,96453.92
2018-04-01T15:45:00.402Z,96457.64
2018-04-01T15:48:22.741Z,96465.80
2018-04-01T15:51:45.805Z,96463.44
2018-04-01T15:55:08.143Z,96475.92
2018-04-01T15:58:30.559Z,96463.85
2018-04-01T16:01:53.638Z,96452.35
2018-04-01T16:05:16.694Z,96451.05
2018-04-01T16:08:39.778Z,96443.09
2018-04-01T16:12:02.100Z,96445.62
2018-04-01T16:15:25.301Z,96450.30
2018-04-01T16:18:48.585Z,96450.59
2018-04-01T16:22:10.945Z,96454.71
2018-04-01T16:25:34.009Z,96457.30
2018-04-01T16:28:57.069Z,96460.58
2018-04-01T16:32:19.404Z,96467.85
2018-04-01T16:35:41.745Z,96478.06
2018-04-01T16:39:04.779Z,96477.09
2018-04-01T16:42:27.100Z,96474.98
2018-04-01T16:45:49.405Z,96472.57
2018-04-01T16:49:11.679Z,96475.61
2018-04-01T16:52:34.031Z,96485.09
2018-04-01T16:55:57.084Z,96485.11
2018-04-01T16:59:19.440Z,96484.01
2018-04-01T17:02:42.615Z,96486.54
2018-04-01T17:06:04.968Z,96484.01
2018-04-01T17:09:29.181Z,96488.98
2018-04-01T17:12:51.631Z,96487.74
2018-04-01T17:16:14.682Z,96490.34
2018-04-01T17:19:37.016Z,96494.89
2018-04-01T17:22:59.290Z,96488.97
2018-04-01T17:26:22.358Z,96492.02
2018-04-01T17:29:45.407Z,96491.49
2018-04-01T17:33:07.725Z,96485.17
2018-04-01T17:36:30.813Z,96487.36
2018-04-01T17:39:53.226Z,96496.41
2018-04-01T17:43:15.504Z,96506.30
2018-04-01T17:46:38.591Z,96499.69
2018-04-01T17:50:01.644Z,96497.33
2018-04-01T17:53:24.694Z,96497.77
2018-04-01T17:56:47.038Z,96498.12
2018-04-01T18:00:09.465Z,96504.16
2018-04-01T18:03:32.530Z,96503.55
2018-04-01T18:06:55.238Z,96507.31
2018-04-01T18:10:17.574Z,96516.66
2018-04-01T18:13:40.749Z,96523.05
2018-04-01T18:17:03.058Z,96526.61
2018-04-01T18:20:26.864Z,96526.91
2018-04-01T18:23:49.173Z,96531.17
2018-04-01T18:27:12.260Z,96539.66
2018-04-01T18:30:34.587Z,96542.59
2018-04-01T18:33:57.675Z,96544.69
2018-04-01T18:37:20.018Z,96545.22
2018-04-01T18:40:42.425Z,96552.75
2018-04-01T18:44:04.757Z,96563.11
2018-04-01T20:10:20.656Z,96623.65
2018-04-01T20:13:44.034Z,96611.63
2018-04-01T20:17:06.898Z,96613.34
2018-04-01T20:20:29.749Z,96605.39
2018-04-01T20:23:52.592Z,96610.09
2018-04-01T20:27:15.490Z,96614.75
2018-04-01T20:30:38.366Z,96616.58
2018-04-01T20:34:01.183Z,96618.72
2018-04-01T20:37:24.067Z,96616.77
2018-04-01T20:40:47.023Z,96619.42
2018-04-01T20:44:09.871Z,96614.59
2018-04-01T20:47:33.539Z,96612.38
2018-04-01T20:50:56.380Z,96606.27
2018-04-01T20:54:19.246Z,96607.23
2018-04-01T20:57:42.077Z,96610.82
2018-04-01T21:01:04.930Z,96610.62
2018-04-01T21:04:28.006Z,96606.84
2018-04-01T21:07:50.866Z,96612.20
2018-04-01T21:11:13.768Z,96612.94
2018-04-01T21:14:36.740Z,96606.16
2018-04-01T21:17:59.599Z,96611.04
2018-04-01T21:21:22.444Z,96609.05
2018-04-01T21:24:45.310Z,96608.34
2018-04-01T21:28:08.166Z,96604.74
2018-04-01T21:31:31.007Z,96602.16
2018-04-01T21:34:53.843Z,96609.58
2018-04-01T21:38:16.709Z,96609.59
2018-04-01T23:04:31.910Z,96588.97
2018-04-01T23:07:55.784Z,96594.18
2018-04-01T23:11:18.939Z,96586.13
2018-04-01T23:14:41.911Z,96589.23
2018-04-01T23:18:04.774Z,96583.97
2018-04-01T23:21:27.632Z,96587.38
2018-04-01T23:24:50.454Z,96589.50
2018-04-01T23:28:14.121Z,96582.27
2018-04-01T23:31:37.957Z,96581.98
2018-04-01T23:35:01.573Z,96589.65
2018-04-01T23:38:24.419Z,96581.03
2018-04-01T23:41:47.257Z,96577.70
2018-04-01T23:45:10.144Z,96571.31
2018-04-01T23:48:33.844Z,96559.92
